Time;durP1;ratioP1;P1;durP2;ratioP2;P2;SDS_P1;SDS_P2;PMS_P1;PMS_P2;Temp;Humidity;BMP_temperature;BMP_pressure;BME280_temperature;BME280_humidity;BME280_pressure;Samples;Min_cycle;Max_cycle;Signal;HPM_P1;HPM_P2
2023/05/04 08:06:39;;;;;;;13.98;6.00;;;;;;;12.51;65.19;101790.94;5107994;27;20419;-73
2023/05/04 08:09:07;;;;;;;12.30;6.20;;;;;;;12.68;65.09;101795.88;5108979;28;20023;-73
2023/05/04 08:11:36;;;;;;;14.40;6.47;;;;;;;12.83;65.57;101798.31;5097092;28;20032;-67
2023/05/04 08:14:04;;;;;;;10.07;6.25;;;;;;;12.97;62.84;101788.22;5089970;28;20039;-70
2023/05/04 08:16:31;;;;;;;12.77;6.70;;;;;;;13.10;63.67;101785.41;5089143;28;20024;-69
2023/05/04 08:18:56;;;;;;;8.95;6.00;;;;;;;13.20;61.87;101780.34;5084292;28;20024;-70
2023/05/04 08:21:22;;;;;;;14.27;5.63;;;;;;;13.25;60.57;101779.66;5078190;28;20027;-69
2023/05/04 08:23:48;;;;;;;10.40;6.07;;;;;;;13.27;61.16;101772.97;5072910;28;20477;-70
2023/05/04 08:26:14;;;;;;;10.18;6.00;;;;;;;13.36;60.61;101781.72;5079381;28;20111;-69
2023/05/04 08:28:39;;;;;;;15.32;6.05;;;;;;;13.42;60.51;101777.28;5086407;28;20128;-68
2023/05/04 08:31:05;;;;;;;26.23;6.93;;;;;;;13.44;60.01;101775.19;5089683;28;20044;-73
2023/05/04 08:33:31;;;;;;;11.23;5.90;;;;;;;13.54;60.28;101774.66;5085858;28;20081;-73
2023/05/04 08:35:57;;;;;;;14.02;5.78;;;;;;;13.65;60.11;101769.34;5086692;28;20025;-75
2023/05/04 08:38:22;;;;;;;10.13;5.90;;;;;;;13.71;59.54;101773.06;5086571;28;20062;-75
2023/05/04 08:40:48;;;;;;;10.73;5.93;;;;;;;13.70;58.89;101759.69;5088025;28;20123;-74
2023/05/04 08:43:14;;;;;;;15.63;5.90;;;;;;;13.80;58.30;101758.13;5087456;28;20032;-74
2023/05/04 08:45:40;;;;;;;10.90;5.90;;;;;;;13.86;58.65;101750.09;5074709;28;20090;-74
2023/05/04 08:48:07;;;;;;;9.10;5.90;;;;;;;13.96;58.90;101748.53;5068639;28;20033;-72
2023/05/04 08:50:33;;;;;;;8.82;5.78;;;;;;;14.11;59.14;101739.97;5084032;28;20039;-75
2023/05/04 08:53:01;;;;;;;11.80;5.93;;;;;;;14.21;58.58;101728.59;5068990;28;20033;-74
2023/05/04 08:55:32;;;;;;;14.18;5.75;;;;;;;14.23;57.58;101715.56;5091989;28;20039;-73
2023/05/04 08:58:02;;;;;;;10.95;5.80;;;;;;;14.38;57.47;101727.97;5087167;28;20479;-74
2023/05/04 09:00:31;;;;;;;9.63;6.07;;;;;;;14.47;56.94;101718.41;5085041;28;20032;-73
2023/05/04 09:03:02;;;;;;;9.10;5.85;;;;;;;14.54;58.51;101719.97;5088788;28;20042;-75
2023/05/04 09:05:28;;;;;;;30.73;6.35;;;;;;;14.71;57.69;101714.75;5088853;28;20106;-71
2023/05/04 09:07:53;;;;;;;15.85;6.13;;;;;;;14.76;57.01;101721.41;5088514;28;20512;-72
2023/05/04 09:10:19;;;;;;;16.60;6.25;;;;;;;14.84;56.56;101719.19;5088718;28;20118;-71
2023/05/04 09:12:45;;;;;;;10.02;5.88;;;;;;;14.85;56.65;101720.81;5088984;28;20103;-75
2023/05/04 09:15:18;;;;;;;12.43;6.07;;;;;;;14.91;56.20;101712.81;5103374;28;20066;-72
2023/05/04 09:17:57;;;;;;;56.05;8.05;;;;;;;14.98;55.78;101708.91;5075266;28;20479;-73
2023/05/04 09:20:24;;;;;;;18.13;6.30;;;;;;;15.14;57.70;101714.75;5075254;28;20055;-74
2023/05/04 09:23:06;;;;;;;59.03;7.82;;;;;;;15.24;57.28;101715.81;5073800;28;20454;-72
2023/05/04 09:25:53;;;;;;;113.28;11.10;;;;;;;15.37;56.12;101705.78;5073280;28;20434;-71
2023/05/04 09:28:35;;;;;;;39.10;6.22;;;;;;;15.49;56.14;101720.25;5074799;28;20044;-72
2023/05/04 09:31:01;;;;;;;10.90;5.82;;;;;;;15.66;55.21;101712.16;5073533;28;20043;-73
2023/05/04 09:33:33;;;;;;;9.40;5.60;;;;;;;15.70;55.02;101705.19;5073566;28;20029;-80
2023/05/04 09:36:13;;;;;;;11.95;5.97;;;;;;;15.72;55.45;101705.75;5072648;28;20375;-74
2023/05/04 09:39:07;;;;;;;12.48;6.40;;;;;;;15.80;55.52;101704.59;5074579;28;20025;-78
2023/05/04 09:41:33;;;;;;;9.32;5.53;;;;;;;15.88;54.98;101695.19;5073540;28;20044;-74
2023/05/04 09:43:58;;;;;;;10.50;5.68;;;;;;;15.93;53.18;101701.59;5072659;28;20055;-73
2023/05/04 09:46:24;;;;;;;12.15;5.85;;;;;;;16.03;54.26;101700.97;5074276;28;20436;-72
2023/05/04 09:48:57;;;;;;;10.93;5.78;;;;;;;16.13;54.37;101698.47;5074221;28;20431;-73
2023/05/04 09:51:25;;;;;;;11.32;6.00;;;;;;;16.18;52.08;101694.19;5073103;28;20025;-73
2023/05/04 09:53:51;;;;;;;15.80;5.80;;;;;;;16.35;53.40;101695.09;5069304;28;20048;-73
2023/05/04 09:56:28;;;;;;;10.75;6.20;;;;;;;16.44;53.10;101693.63;5071074;28;20036;-73
2023/05/04 09:59:00;;;;;;;11.15;5.45;;;;;;;16.59;52.94;101697.72;5071774;28;20074;-73
2023/05/04 10:01:28;;;;;;;13.52;6.35;;;;;;;16.56;51.99;101674.47;5069847;28;20037;-73
2023/05/04 10:03:54;;;;;;;9.30;5.68;;;;;;;16.64;52.23;101681.44;5073932;28;20484;-73
2023/05/04 10:06:20;;;;;;;22.17;6.38;;;;;;;16.66;51.80;101673.81;5071225;28;20072;-75
2023/05/04 10:08:48;;;;;;;10.60;5.88;;;;;;;16.73;52.94;101671.75;5072698;28;20040;-73
2023/05/04 10:11:14;;;;;;;32.35;7.07;;;;;;;16.84;52.00;101659.91;5072721;28;20463;-74
2023/05/04 10:13:40;;;;;;;14.02;5.68;;;;;;;17.01;52.10;101659.13;5073876;28;20468;-73
2023/05/04 10:16:40;;;;;;;12.10;6.00;;;;;;;17.05;51.79;101654.81;5071305;28;20074;-73
2023/05/04 10:19:39;;;;;;;13.52;5.78;;;;;;;17.13;51.45;101635.25;5067102;28;20072;-77
2023/05/04 10:22:29;;;;;;;10.70;6.32;;;;;;;17.27;51.87;101627.53;5072959;28;20142;-74
2023/05/04 10:25:18;;;;;;;17.25;6.13;;;;;;;17.32;50.99;101626.78;5072433;28;20377;-73
2023/05/04 10:28:09;;;;;;;9.88;5.97;;;;;;;17.45;51.95;101614.66;5072110;28;20067;-73
2023/05/04 10:30:35;;;;;;;12.98;5.60;;;;;;;17.67;52.81;101598.25;5074345;28;20028;-74
2023/05/04 10:33:01;;;;;;;12.18;5.70;;;;;;;17.82;51.20;101603.09;5074170;28;20357;-74
2023/05/04 10:35:27;;;;;;;15.05;6.25;;;;;;;17.86;51.26;101607.81;5073237;28;20033;-72
2023/05/04 10:37:54;;;;;;;11.38;5.72;;;;;;;17.95;49.98;101600.00;5071167;28;20043;-74
2023/05/04 10:40:49;;;;;;;9.55;5.63;;;;;;;18.12;50.34;101590.88;5072665;28;20036;-76
2023/05/04 10:43:25;;;;;;;11.10;6.20;;;;;;;18.28;49.90;101589.91;5065328;28;20071;-78
2023/05/04 10:45:50;;;;;;;9.80;5.28;;;;;;;18.30;48.15;101575.97;5072789;28;20037;-74
2023/05/04 10:48:18;;;;;;;10.77;5.20;;;;;;;18.40;47.85;101584.28;5073351;28;20028;-73
2023/05/04 10:50:48;;;;;;;8.77;5.85;;;;;;;18.51;48.56;101568.75;5073121;28;20067;-72
2023/05/04 10:53:15;;;;;;;7.68;5.47;;;;;;;18.60;47.10;101559.81;5072493;28;20387;-72
2023/05/04 10:55:42;;;;;;;12.27;5.70;;;;;;;18.67;47.36;101558.75;5072003;28;20032;-72
2023/05/04 10:58:10;;;;;;;11.30;5.50;;;;;;;18.72;46.71;101551.41;5072211;28;20029;-72
2023/05/04 11:00:39;;;;;;;16.42;5.57;;;;;;;18.73;46.50;101546.72;5069567;28;20123;-72
2023/05/04 11:03:10;;;;;;;13.00;4.93;;;;;;;18.79;46.63;101548.41;5073221;28;20396;-72
2023/05/04 11:05:47;;;;;;;9.40;4.82;;;;;;;18.95;46.77;101555.69;5070917;28;20072;-73
2023/05/04 11:08:20;;;;;;;27.58;7.30;;;;;;;19.00;45.91;101541.19;5073284;28;20111;-73
2023/05/04 11:10:47;;;;;;;7.72;5.13;;;;;;;19.07;45.94;101539.03;5071750;28;20119;-73
2023/05/04 11:13:14;;;;;;;12.85;5.00;;;;;;;19.19;45.19;101538.84;5073100;28;20033;-72
2023/05/04 11:15:46;;;;;;;9.35;5.13;;;;;;;19.18;45.97;101537.19;5071526;28;20037;-72
2023/05/04 11:18:12;;;;;;;8.60;4.82;;;;;;;19.34;46.18;101529.00;5071543;28;20035;-72
2023/05/04 11:20:37;;;;;;;13.25;4.85;;;;;;;19.46;45.94;101516.72;5073254;28;20032;-75
2023/05/04 11:23:06;;;;;;;13.10;4.53;;;;;;;19.57;44.92;101520.34;5071729;28;20032;-74
2023/05/04 11:25:34;;;;;;;23.10;5.53;;;;;;;19.62;43.74;101519.53;5071729;28;20082;-72
2023/05/04 11:28:00;;;;;;;8.98;4.70;;;;;;;19.71;43.68;101517.91;5071860;28;20071;-74
2023/05/04 11:30:35;;;;;;;9.70;4.30;;;;;;;19.81;44.00;101528.94;5071450;28;20056;-74
2023/05/04 11:33:11;;;;;;;9.98;4.72;;;;;;;19.91;44.53;101524.56;5072318;28;20020;-73
2023/05/04 11:35:36;;;;;;;42.28;7.18;;;;;;;19.88;43.94;101512.19;5071669;28;20028;-72
2023/05/04 11:38:02;;;;;;;10.32;4.60;;;;;;;20.03;43.57;101507.84;5071286;28;20445;-73
2023/05/04 11:40:27;;;;;;;8.82;4.75;;;;;;;;;;5072340;28;20488;-73
2023/05/04 11:42:55;;;;;;;13.35;4.50;;;;;;;20.29;44.30;101512.25;5071366;28;20465;-72
2023/05/04 11:45:28;;;;;;;10.13;4.78;;;;;;;20.41;43.02;101503.75;5071319;28;20067;-73
2023/05/04 11:47:55;;;;;;;21.92;5.30;;;;;;;20.51;42.84;101503.72;5071171;28;20123;-72
2023/05/04 11:50:21;;;;;;;13.50;4.55;;;;;;;20.51;41.57;101494.66;5071288;28;20037;-73
2023/05/04 11:52:47;;;;;;;14.93;4.00;;;;;;;20.63;40.85;101478.69;5071006;28;20487;-73
2023/05/04 11:55:28;;;;;;;10.63;3.67;;;;;;;20.71;41.68;101482.81;5071821;28;20456;-73
2023/05/04 11:58:07;;;;;;;5.28;3.40;;;;;;;20.89;41.93;101478.66;5072256;28;20060;-73
2023/05/04 12:00:33;;;;;;;11.20;4.40;;;;;;;21.01;41.02;101473.66;5068406;28;20085;-72
2023/05/04 12:03:00;;;;;;;10.63;4.53;;;;;;;21.11;41.16;101467.31;5070492;28;20093;-75
2023/05/04 12:05:26;;;;;;;19.30;4.90;;;;;;;21.08;40.86;101475.31;5050551;28;20091;-74
2023/05/04 12:07:51;;;;;;;5.82;4.15;;;;;;;21.18;41.38;101462.34;5050878;28;20161;-72
2023/05/04 12:10:27;;;;;;;10.13;4.45;;;;;;;21.30;42.05;101464.75;5051039;28;20477;-74
2023/05/04 12:12:53;;;;;;;19.30;4.93;;;;;;;21.31;40.95;101455.38;5055571;28;20029;-74
2023/05/04 12:15:35;;;;;;;8.38;4.68;;;;;;;21.42;41.88;101451.50;5070884;28;20368;-75
2023/05/04 12:18:01;;;;;;;13.93;4.90;;;;;;;21.50;40.43;101450.09;5072105;28;20029;-74
2023/05/04 12:20:28;;;;;;;6.05;4.00;;;;;;;21.55;38.51;101454.75;5071036;28;20024;-75
2023/05/04 12:22:57;;;;;;;5.63;3.60;;;;;;;21.49;39.32;101458.59;5070918;28;20496;-74
2023/05/04 12:25:23;;;;;;;10.65;3.42;;;;;;;21.42;39.20;101445.97;5072247;28;20031;-74
2023/05/04 12:27:49;;;;;;;8.05;3.63;;;;;;;21.40;38.90;101447.38;5070818;28;20638;-74
2023/05/04 12:30:15;;;;;;;7.38;3.80;;;;;;;21.31;38.42;101444.38;5059976;28;20100;-74
2023/05/04 12:32:42;;;;;;;6.32;3.70;;;;;;;21.32;38.49;101439.72;5072164;28;20050;-72
2023/05/04 12:35:07;;;;;;;5.40;3.80;;;;;;;21.36;39.09;101438.84;5069916;28;20433;-70
2023/05/04 12:37:33;;;;;;;5.35;3.78;;;;;;;21.49;39.79;101439.34;5072183;28;20032;-73
2023/05/04 12:39:58;;;;;;;6.13;3.42;;;;;;;21.57;39.21;101442.34;5071695;28;20060;-74
2023/05/04 12:42:24;;;;;;;9.40;3.70;;;;;;;21.80;39.31;101433.66;5070554;28;20036;-74
2023/05/04 12:44:49;;;;;;;14.38;3.88;;;;;;;21.93;38.99;101433.81;5070058;28;20032;-73
2023/05/04 12:47:16;;;;;;;5.85;3.85;;;;;;;22.07;38.05;101416.63;5071721;28;20032;-73
2023/05/04 12:49:42;;;;;;;9.93;4.15;;;;;;;22.11;37.93;101424.00;5072065;28;20030;-73
2023/05/04 12:52:07;;;;;;;6.60;3.80;;;;;;;22.17;37.96;101430.31;5072097;28;20077;-73
2023/05/04 12:54:33;;;;;;;8.98;3.60;;;;;;;22.33;38.15;101419.16;5074034;28;20483;-73
2023/05/04 12:56:58;;;;;;;6.57;3.80;;;;;;;22.41;37.81;101419.38;5075248;28;20077;-73
2023/05/04 12:59:25;;;;;;;8.63;4.00;;;;;;;22.47;38.71;101423.72;5075482;28;20036;-73
2023/05/04 13:01:50;;;;;;;11.75;4.80;;;;;;;22.39;37.59;101412.50;5071803;28;20065;-73
2023/05/04 13:04:15;;;;;;;11.88;4.25;;;;;;;22.39;37.78;101406.97;5074586;28;20028;-73
2023/05/04 13:06:44;;;;;;;10.45;4.00;;;;;;;22.42;38.24;101401.72;5073389;28;20039;-73
2023/05/04 13:09:09;;;;;;;8.10;3.80;;;;;;;22.48;38.17;101392.28;5074138;28;20040;-73
2023/05/04 13:11:35;;;;;;;8.48;4.40;;;;;;;22.53;37.08;101393.34;5074085;28;20027;-73
2023/05/04 13:14:00;;;;;;;9.10;3.88;;;;;;;22.60;37.70;101388.28;5073604;28;20468;-73
2023/05/04 13:16:26;;;;;;;7.30;3.85;;;;;;;22.62;38.11;101386.06;5075655;28;20514;-73
2023/05/04 13:18:53;;;;;;;6.57;3.88;;;;;;;22.64;37.23;101381.06;5075119;28;20060;-73
2023/05/04 13:21:19;;;;;;;9.57;3.70;;;;;;;22.54;37.77;101376.50;5073996;28;20079;-73
2023/05/04 13:23:44;;;;;;;7.93;3.22;;;;;;;22.60;37.62;101368.97;5075304;28;20460;-73
2023/05/04 13:26:10;;;;;;;7.90;3.72;;;;;;;22.59;38.56;101365.38;5072447;28;20122;-73
2023/05/04 13:28:36;;;;;;;10.82;4.03;;;;;;;22.58;38.43;101363.75;5074959;28;20026;-73
2023/05/04 13:31:01;;;;;;;7.95;3.50;;;;;;;22.69;37.40;101350.66;5074858;28;20035;-73
2023/05/04 13:33:26;;;;;;;9.55;3.92;;;;;;;22.69;37.87;101358.09;5074837;28;20028;-73
2023/05/04 13:35:52;;;;;;;17.15;4.13;;;;;;;22.78;36.98;101353.56;5073612;28;20032;-73
2023/05/04 13:38:17;;;;;;;12.68;3.97;;;;;;;22.72;37.31;101350.06;5073699;28;20032;-73
2023/05/04 13:40:43;;;;;;;8.05;3.67;;;;;;;22.72;37.69;101343.72;5074697;28;20468;-73
2023/05/04 13:43:08;;;;;;;11.10;3.58;;;;;;;22.80;37.36;101341.13;5074683;28;20029;-73
2023/05/04 13:45:33;;;;;;;9.98;3.60;;;;;;;22.82;37.51;101333.38;5072718;28;20029;-73
2023/05/04 13:47:59;;;;;;;6.40;3.35;;;;;;;22.96;37.82;101335.41;5074682;28;20476;-73
2023/05/04 13:50:24;;;;;;;17.88;4.10;;;;;;;23.11;36.59;101321.41;5074890;28;20025;-73
2023/05/04 13:52:50;;;;;;;13.45;3.72;;;;;;;23.08;36.22;101310.13;5074237;28;20035;-73
2023/05/04 13:55:17;;;;;;;10.73;3.40;;;;;;;23.07;36.78;101312.06;5073589;28;20033;-73
2023/05/04 13:57:43;;;;;;;6.93;3.47;;;;;;;23.08;35.96;101308.16;5074653;28;20085;-73
2023/05/04 14:00:09;;;;;;;9.63;3.17;;;;;;;23.09;35.32;101307.09;5073426;28;20028;-73
2023/05/04 14:02:34;;;;;;;9.55;3.55;;;;;;;23.16;35.13;101302.03;5072178;28;20059;-73
2023/05/04 14:05:00;;;;;;;11.77;3.28;;;;;;;23.29;35.10;101297.66;5071951;28;20500;-73
2023/05/04 14:07:25;;;;;;;13.48;3.42;;;;;;;23.49;35.76;101291.00;5073222;28;20040;-73
2023/05/04 14:09:51;;;;;;;12.30;3.33;;;;;;;23.56;35.18;101282.31;5072988;28;20029;-73
2023/05/04 14:12:18;;;;;;;28.73;4.95;;;;;;;23.58;34.84;101282.84;5073037;28;20515;-73
2023/05/04 14:14:44;;;;;;;10.18;4.07;;;;;;;23.54;34.59;101279.88;5074301;28;20101;-74
2023/05/04 14:17:09;;;;;;;15.77;4.32;;;;;;;23.64;34.63;101275.28;5072220;28;20425;-74
2023/05/04 14:19:35;;;;;;;8.57;3.88;;;;;;;23.73;33.97;101269.88;5072849;28;20369;-74
2023/05/04 14:22:01;;;;;;;8.65;3.60;;;;;;;23.84;34.34;101269.41;5073927;28;20074;-73
2023/05/04 14:24:28;;;;;;;24.48;4.32;;;;;;;23.92;33.30;101267.91;5073011;28;20033;-75
2023/05/04 14:26:53;;;;;;;53.42;5.65;;;;;;;24.10;33.57;101295.78;5072081;28;20407;-72
2023/05/04 14:29:18;;;;;;;6.85;3.45;;;;;;;24.09;33.66;101292.19;5072049;28;20033;-73
2023/05/04 14:31:44;;;;;;;10.93;2.92;;;;;;;24.21;33.15;101298.00;5073951;28;20032;-73
2023/05/04 14:34:11;;;;;;;9.40;3.10;;;;;;;24.28;32.45;101297.63;5071939;28;20325;-73
2023/05/04 14:36:36;;;;;;;11.18;3.70;;;;;;;24.26;31.93;101302.63;5072824;28;20028;-73
2023/05/04 14:39:02;;;;;;;7.53;2.90;;;;;;;24.29;32.39;101285.44;5070810;28;20025;-73
2023/05/04 14:41:32;;;;;;;11.52;3.08;;;;;;;24.24;31.64;101283.56;5072464;28;20024;-73
2023/05/04 14:43:58;;;;;;;6.03;2.90;;;;;;;24.22;32.18;101287.78;5089085;28;20081;-73
2023/05/04 14:46:23;;;;;;;9.10;2.78;;;;;;;24.42;32.58;101289.31;5073217;28;20024;-73
2023/05/04 14:48:48;;;;;;;7.03;2.95;;;;;;;24.42;32.33;101281.03;5073459;28;20127;-74
2023/05/04 14:51:28;;;;;;;9.65;3.10;;;;;;;24.35;33.04;101266.78;5072712;28;20064;-72
2023/05/04 14:53:55;;;;;;;22.42;3.40;;;;;;;24.31;32.14;101271.31;5072075;28;20028;-73
2023/05/04 14:56:20;;;;;;;6.05;3.20;;;;;;;24.40;31.85;101266.69;5072823;28;20048;-74
2023/05/04 14:58:48;;;;;;;5.68;2.97;;;;;;;24.50;31.97;101260.91;5069752;28;20059;-82
2023/05/04 15:01:14;;;;;;;8.05;2.95;;;;;;;24.99;31.01;101257.69;5060802;28;20025;-74
2023/05/04 15:03:39;;;;;;;9.07;3.20;;;;;;;25.33;31.48;101248.81;5070179;28;20967;-73
2023/05/04 15:06:05;;;;;;;8.68;3.03;;;;;;;25.43;31.43;101244.97;5070685;28;20052;-73
2023/05/04 15:08:30;;;;;;;8.30;2.80;;;;;;;25.44;32.06;101244.66;5072670;28;20050;-73
2023/05/04 15:10:57;;;;;;;8.25;2.50;;;;;;;25.80;31.90;101248.44;5071027;28;20032;-74
2023/05/04 15:13:22;;;;;;;9.30;2.85;;;;;;;25.81;30.84;101245.34;5071413;28;20021;-73
2023/05/04 15:15:47;;;;;;;7.23;3.00;;;;;;;25.50;30.28;101239.81;5062655;28;20033;-74
2023/05/04 15:18:13;;;;;;;9.77;3.15;;;;;;;24.96;30.78;101242.50;5071126;28;20294;-74
2023/05/04 15:20:38;;;;;;;9.70;2.90;;;;;;;24.77;32.34;101239.88;5072568;28;20457;-73
2023/05/04 15:23:09;;;;;;;5.28;2.67;;;;;;;24.55;33.21;101247.00;5072141;28;20031;-74
2023/05/04 15:25:36;;;;;;;5.50;2.60;;;;;;;24.68;32.94;101233.47;5071270;28;20112;-74
2023/05/04 15:28:13;;;;;;;5.20;2.38;;;;;;;25.20;31.43;101244.97;5072355;28;20032;-79
2023/05/04 15:30:53;;;;;;;4.90;2.47;;;;;;;25.56;31.82;101234.94;5072621;28;20056;-76
2023/05/04 15:33:19;;;;;;;7.13;2.88;;;;;;;25.27;31.50;101225.13;5073106;28;20036;-74
2023/05/04 15:35:44;;;;;;;10.00;2.90;;;;;;;24.97;30.76;101229.47;5069271;28;20036;-76
2023/05/04 15:38:19;;;;;;;6.65;2.63;;;;;;;24.69;32.36;101219.31;5074661;28;20037;-77
2023/05/04 15:40:53;;;;;;;7.97;2.92;;;;;;;24.46;31.20;101223.13;5068004;28;20036;-76
2023/05/04 15:43:19;;;;;;;14.13;2.67;;;;;;;24.24;32.60;101221.94;5071145;28;20025;-78
2023/05/04 15:46:12;;;;;;;6.45;2.55;;;;;;;24.02;32.75;101223.47;5070813;28;20032;-81
2023/05/04 15:55:49;;;;;;;10.38;2.80;;;;;;;23.52;33.04;101203.94;5028056;28;20449;-77
2023/05/04 15:58:14;;;;;;;10.05;2.58;;;;;;;23.40;33.25;101204.47;5022827;28;20041;-73
2023/05/04 16:00:40;;;;;;;7.57;2.65;;;;;;;23.25;32.98;101202.78;5026861;28;20712;-73
